sensor_id;sensor_type;location;lat;lon;timestamp;pressure;altitude;pressure_sealevel;temperature;humidity
77871;BME280;67067;46.850;7.578;2023-08-08T00:00:52;95666.19;;;9.48;53.34
77871;BME280;67067;46.850;7.578;2023-08-08T00:01:54;95664.09;;;9.50;53.33
77871;BME280;67067;46.850;7.578;2023-08-08T00:02:57;95658.81;;;9.50;53.22
77871;BME280;67067;46.850;7.578;2023-08-08T00:03:59;95648.81;;;9.52;52.98
77871;BME280;67067;46.850;7.578;2023-08-08T00:05:01;95650.66;;;9.51;53.03
77871;BME280;67067;46.850;7.578;2023-08-08T00:06:02;95646.84;;;9.35;53.54
77871;BME280;67067;46.850;7.578;2023-08-08T00:07:04;95657.13;;;9.44;53.29
77871;BME280;67067;46.850;7.578;2023-08-08T00:08:06;95657.88;;;9.32;53.44
77871;BME280;67067;46.850;7.578;2023-08-08T00:09:08;95653.19;;;9.46;53.33
77871;BME280;67067;46.850;7.578;2023-08-08T00:10:10;95655.03;;;9.46;53.54
77871;BME280;67067;46.850;7.578;2023-08-08T00:11:12;95651.38;;;9.47;53.25
77871;BME280;67067;46.850;7.578;2023-08-08T00:12:16;95654.56;;;9.49;53.19
77871;BME280;67067;46.850;7.578;2023-08-08T00:13:17;95655.81;;;9.34;53.51
77871;BME280;67067;46.850;7.578;2023-08-08T00:14:19;95652.31;;;9.41;53.20
77871;BME280;67067;46.850;7.578;2023-08-08T00:15:21;95656.53;;;9.30;53.53
77871;BME280;67067;46.850;7.578;2023-08-08T00:16:22;95659.41;;;9.28;53.46
77871;BME280;67067;46.850;7.578;2023-08-08T00:17:24;95649.41;;;9.30;53.48
77871;BME280;67067;46.850;7.578;2023-08-08T00:18:26;95653.44;;;9.21;53.62
77871;BME280;67067;46.850;7.578;2023-08-08T00:19:28;95652.97;;;9.24;53.47
77871;BME280;67067;46.850;7.578;2023-08-08T00:20:32;95645.28;;;9.22;53.44
77871;BME280;67067;46.850;7.578;2023-08-08T00:21:36;95648.16;;;9.21;53.60
77871;BME280;67067;46.850;7.578;2023-08-08T00:22:38;95641.06;;;9.10;53.64
77871;BME280;67067;46.850;7.578;2023-08-08T00:23:40;95642.75;;;9.16;53.82
77871;BME280;67067;46.850;7.578;2023-08-08T00:24:41;95640.13;;;9.16;53.79
77871;BME280;67067;46.850;7.578;2023-08-08T00:25:43;95625.09;;;9.16;53.83
77871;BME280;67067;46.850;7.578;2023-08-08T00:26:45;95620.28;;;9.13;53.57
77871;BME280;67067;46.850;7.578;2023-08-08T00:27:47;95617.19;;;9.04;53.76
77871;BME280;67067;46.850;7.578;2023-08-08T00:28:49;95621.88;;;9.14;53.66
77871;BME280;67067;46.850;7.578;2023-08-08T00:29:53;95625.88;;;9.17;53.87
77871;BME280;67067;46.850;7.578;2023-08-08T00:30:57;95624.84;;;9.18;53.52
77871;BME280;67067;46.850;7.578;2023-08-08T00:31:59;95626.25;;;9.20;53.62
77871;BME280;67067;46.850;7.578;2023-08-08T00:33:04;95627.03;;;9.21;53.60
77871;BME280;67067;46.850;7.578;2023-08-08T00:34:06;95632.66;;;9.25;53.88
77871;BME280;67067;46.850;7.578;2023-08-08T00:35:08;95621.88;;;9.14;53.89
77871;BME280;67067;46.850;7.578;2023-08-08T00:36:12;95624.94;;;9.23;53.73
77871;BME280;67067;46.850;7.578;2023-08-08T00:37:14;95630.13;;;9.30;53.30
77871;BME280;67067;46.850;7.578;2023-08-08T00:38:18;95632.75;;;9.30;53.28
77871;BME280;67067;46.850;7.578;2023-08-08T00:39:20;95634.13;;;9.32;53.66
77871;BME280;67067;46.850;7.578;2023-08-08T00:40:24;95634.59;;;9.29;53.83
77871;BME280;67067;46.850;7.578;2023-08-08T00:41:26;95631.38;;;9.27;53.90
77871;BME280;67067;46.850;7.578;2023-08-08T00:42:27;95638.31;;;9.16;54.14
77871;BME280;67067;46.850;7.578;2023-08-08T00:43:29;95635.88;;;9.27;53.86
77871;BME280;67067;46.850;7.578;2023-08-08T00:44:31;95635.97;;;9.20;54.07
77871;BME280;67067;46.850;7.578;2023-08-08T00:45:32;95632.50;;;9.31;53.51
77871;BME280;67067;46.850;7.578;2023-08-08T00:46:34;95635.19;;;9.19;53.65
77871;BME280;67067;46.850;7.578;2023-08-08T00:47:39;95624.03;;;9.29;53.50
77871;BME280;67067;46.850;7.578;2023-08-08T00:48:41;95626.09;;;9.27;53.69
77871;BME280;67067;46.850;7.578;2023-08-08T00:49:43;95625.31;;;9.27;53.38
77871;BME280;67067;46.850;7.578;2023-08-08T00:50:48;95622.09;;;9.25;53.58
77871;BME280;67067;46.850;7.578;2023-08-08T00:51:51;95622.09;;;9.25;53.59
77871;BME280;67067;46.850;7.578;2023-08-08T00:52:56;95618.06;;;9.22;53.57
77871;BME280;67067;46.850;7.578;2023-08-08T00:54:02;95620.13;;;9.20;53.64
77871;BME280;67067;46.850;7.578;2023-08-08T00:55:05;95611.19;;;9.21;53.88
77871;BME280;67067;46.850;7.578;2023-08-08T00:56:07;95615.31;;;9.17;53.75
77871;BME280;67067;46.850;7.578;2023-08-08T00:57:15;95615.31;;;9.17;53.65
77871;BME280;67067;46.850;7.578;2023-08-08T00:58:17;95613.41;;;9.12;53.96
77871;BME280;67067;46.850;7.578;2023-08-08T00:59:19;95620.50;;;9.12;53.69
77871;BME280;67067;46.850;7.578;2023-08-08T01:00:21;95619.25;;;9.02;54.35
77871;BME280;67067;46.850;7.578;2023-08-08T01:01:25;95625.91;;;9.05;53.73
77871;BME280;67067;46.850;7.578;2023-08-08T01:02:27;95624.88;;;8.94;53.99
77871;BME280;67067;46.850;7.578;2023-08-08T01:03:28;95621.06;;;9.02;54.02
77871;BME280;67067;46.850;7.578;2023-08-08T01:04:31;95625.09;;;9.04;54.22
77871;BME280;67067;46.850;7.578;2023-08-08T01:05:34;95618.00;;;8.93;54.37
77871;BME280;67067;46.850;7.578;2023-08-08T01:06:38;95623.25;;;9.05;54.16
77871;BME280;67067;46.850;7.578;2023-08-08T01:09:00;95625.22;;;9.10;54.06
77871;BME280;67067;46.850;7.578;2023-08-08T01:11:10;95627.63;;;9.11;53.88
77871;BME280;67067;46.850;7.578;2023-08-08T01:12:15;95619.34;;;9.07;53.76
77871;BME280;67067;46.850;7.578;2023-08-08T01:13:22;95621.66;;;9.04;53.67
77871;BME280;67067;46.850;7.578;2023-08-08T01:14:29;95616.03;;;9.00;53.78
77871;BME280;67067;46.850;7.578;2023-08-08T01:15:36;95618.56;;;8.95;53.84
77871;BME280;67067;46.850;7.578;2023-08-08T01:16:39;95619.63;;;8.94;53.93
77871;BME280;67067;46.850;7.578;2023-08-08T01:17:45;95618.78;;;8.93;53.97
77871;BME280;67067;46.850;7.578;2023-08-08T01:18:48;95619.84;;;8.92;54.36
77871;BME280;67067;46.850;7.578;2023-08-08T01:19:51;95617.44;;;8.91;54.33
77871;BME280;67067;46.850;7.578;2023-08-08T01:20:54;95615.38;;;8.93;54.30
77871;BME280;67067;46.850;7.578;2023-08-08T01:22:05;95616.88;;;8.89;53.98
77871;BME280;67067;46.850;7.578;2023-08-08T01:24:23;95621.09;;;8.90;53.96
77871;BME280;67067;46.850;7.578;2023-08-08T01:25:30;95621.09;;;8.90;53.84
77871;BME280;67067;46.850;7.578;2023-08-08T01:26:33;95623.19;;;8.88;53.82
77871;BME280;67067;46.850;7.578;2023-08-08T01:27:37;95616.03;;;8.88;53.91
77871;BME280;67067;46.850;7.578;2023-08-08T01:28:42;95609.63;;;8.84;54.17
77871;BME280;67067;46.850;7.578;2023-08-08T01:29:47;95613.09;;;8.85;54.03
77871;BME280;67067;46.850;7.578;2023-08-08T01:30:50;95604.59;;;8.83;53.94
77871;BME280;67067;46.850;7.578;2023-08-08T01:31:55;95606.78;;;8.86;53.79
77871;BME280;67067;46.850;7.578;2023-08-08T01:32:58;95598.28;;;8.84;53.95
77871;BME280;67067;46.850;7.578;2023-08-08T01:34:03;95591.16;;;8.84;53.79
77871;BME280;67067;46.850;7.578;2023-08-08T01:35:07;95590.13;;;8.73;54.24
77871;BME280;67067;46.850;7.578;2023-08-08T01:37:44;95587.16;;;8.82;54.06
77871;BME280;67067;46.850;7.578;2023-08-08T01:38:51;95581.88;;;8.82;53.96
77871;BME280;67067;46.850;7.578;2023-08-08T01:39:55;95589.78;;;8.82;54.21
77871;BME280;67067;46.850;7.578;2023-08-08T01:41:00;95581.88;;;8.82;54.11
77871;BME280;67067;46.850;7.578;2023-08-08T01:42:06;95593.00;;;8.84;53.96
77871;BME280;67067;46.850;7.578;2023-08-08T01:43:08;95587.47;;;8.85;54.12
77871;BME280;67067;46.850;7.578;2023-08-08T01:44:13;95591.50;;;8.88;53.88
77871;BME280;67067;46.850;7.578;2023-08-08T01:45:18;95582.19;;;8.85;54.08
77871;BME280;67067;46.850;7.578;2023-08-08T01:46:20;95583.81;;;8.86;54.13
77871;BME280;67067;46.850;7.578;2023-08-08T01:47:25;95575.09;;;8.86;54.04
77871;BME280;67067;46.850;7.578;2023-08-08T01:48:27;95582.19;;;8.85;54.26
77871;BME280;67067;46.850;7.578;2023-08-08T01:49:29;95574.06;;;8.87;54.27
77871;BME280;67067;46.850;7.578;2023-08-08T01:50:31;95569.47;;;8.70;54.58
77871;BME280;67067;46.850;7.578;2023-08-08T01:51:33;95573.38;;;8.79;54.45
77871;BME280;67067;46.850;7.578;2023-08-08T01:52:34;95585.31;;;8.70;54.95
77871;BME280;67067;46.850;7.578;2023-08-08T01:53:37;95584.72;;;8.68;55.12
77871;BME280;67067;46.850;7.578;2023-08-08T01:54:38;95581.31;;;8.79;54.83
77871;BME280;67067;46.850;7.578;2023-08-08T01:55:40;95579.81;;;8.84;54.83
77871;BME280;67067;46.850;7.578;2023-08-08T01:56:42;95590.72;;;8.75;54.70
77871;BME280;67067;46.850;7.578;2023-08-08T01:57:43;95588.28;;;8.86;54.47
77871;BME280;67067;46.850;7.578;2023-08-08T01:58:45;95582.19;;;8.73;54.77
77871;BME280;67067;46.850;7.578;2023-08-08T01:59:47;95586.69;;;8.85;54.69
77871;BME280;67067;46.850;7.578;2023-08-08T02:00:49;95584.63;;;8.87;54.80
77871;BME280;67067;46.850;7.578;2023-08-08T02:01:51;95587.25;;;8.87;54.75
77871;BME280;67067;46.850;7.578;2023-08-08T02:02:53;95585.66;;;8.86;54.79
77871;BME280;67067;46.850;7.578;2023-08-08T02:03:55;95583.00;;;8.86;54.71
77871;BME280;67067;46.850;7.578;2023-08-08T02:04:57;95584.63;;;8.87;54.51
77871;BME280;67067;46.850;7.578;2023-08-08T02:05:59;95592.53;;;8.87;54.64
77871;BME280;67067;46.850;7.578;2023-08-08T02:07:01;95593.69;;;8.91;54.63
77871;BME280;67067;46.850;7.578;2023-08-08T02:08:06;95594.72;;;8.90;54.49
77871;BME280;67067;46.850;7.578;2023-08-08T02:09:09;95598.72;;;8.92;54.42
77871;BME280;67067;46.850;7.578;2023-08-08T02:10:10;95599.06;;;8.84;54.67
77871;BME280;67067;46.850;7.578;2023-08-08T02:11:14;95602.50;;;8.97;54.50
77871;BME280;67067;46.850;7.578;2023-08-08T02:12:16;95599.06;;;8.96;54.52
77871;BME280;67067;46.850;7.578;2023-08-08T02:13:18;95600.66;;;8.97;54.52
77871;BME280;67067;46.850;7.578;2023-08-08T02:14:22;95595.72;;;9.01;54.57
77871;BME280;67067;46.850;7.578;2023-08-08T02:15:24;95588.41;;;8.91;54.63
77871;BME280;67067;46.850;7.578;2023-08-08T02:16:26;95591.25;;;9.01;54.64
77871;BME280;67067;46.850;7.578;2023-08-08T02:17:30;95585.50;;;9.04;54.57
77871;BME280;67067;46.850;7.578;2023-08-08T02:18:35;95584.47;;;9.05;54.63
77871;BME280;67067;46.850;7.578;2023-08-08T02:19:44;95581.81;;;9.05;54.88
77871;BME280;67067;46.850;7.578;2023-08-08T02:20:45;95584.22;;;9.07;54.74
77871;BME280;67067;46.850;7.578;2023-08-08T02:21:49;95582.97;;;9.10;54.42
77871;BME280;67067;46.850;7.578;2023-08-08T02:22:52;95582.50;;;9.13;54.60
77871;BME280;67067;46.850;7.578;2023-08-08T02:23:56;95582.19;;;9.09;54.77
77871;BME280;67067;46.850;7.578;2023-08-08T02:24:58;95588.81;;;9.12;54.65
77871;BME280;67067;46.850;7.578;2023-08-08T02:26:03;95580.09;;;9.11;54.65
77871;BME280;67067;46.850;7.578;2023-08-08T02:27:04;95582.97;;;9.10;55.06
77871;BME280;67067;46.850;7.578;2023-08-08T02:28:08;95578.97;;;8.95;55.09
77871;BME280;67067;46.850;7.578;2023-08-08T02:29:10;95579.28;;;9.11;54.68
77871;BME280;67067;46.850;7.578;2023-08-08T02:30:14;95575.97;;;9.15;54.43
77871;BME280;67067;46.850;7.578;2023-08-08T02:31:15;95580.91;;;9.00;55.28
77871;BME280;67067;46.850;7.578;2023-08-08T02:32:22;95582.50;;;9.13;54.86
77871;BME280;67067;46.850;7.578;2023-08-08T02:33:24;95593.78;;;8.96;55.28
77871;BME280;67067;46.850;7.578;2023-08-08T02:34:26;95589.84;;;9.11;55.00
77871;BME280;67067;46.850;7.578;2023-08-08T02:35:28;95586.75;;;9.14;54.88
77871;BME280;67067;46.850;7.578;2023-08-08T02:36:29;95594.19;;;9.17;54.75
77871;BME280;67067;46.850;7.578;2023-08-08T02:37:35;95591.34;;;9.18;54.89
77871;BME280;67067;46.850;7.578;2023-08-08T02:38:41;95587.19;;;9.22;54.60
77871;BME280;67067;46.850;7.578;2023-08-08T02:39:43;95584.66;;;9.28;54.52
77871;BME280;67067;46.850;7.578;2023-08-08T02:40:45;95590.41;;;9.25;54.62
77871;BME280;67067;46.850;7.578;2023-08-08T02:41:47;95591.19;;;9.25;54.57
77871;BME280;67067;46.850;7.578;2023-08-08T02:42:49;95596.03;;;9.16;54.83
77871;BME280;67067;46.850;7.578;2023-08-08T02:43:51;95583.34;;;9.30;54.48
77871;BME280;67067;46.850;7.578;2023-08-08T02:44:53;95583.94;;;9.32;54.37
77871;BME280;67067;46.850;7.578;2023-08-08T02:45:55;95590.88;;;9.21;54.48
77871;BME280;67067;46.850;7.578;2023-08-08T02:46:57;95582.09;;;9.33;54.29
77871;BME280;67067;46.850;7.578;2023-08-08T02:47:59;95584.50;;;9.34;54.50
77871;BME280;67067;46.850;7.578;2023-08-08T02:49:01;95586.34;;;9.34;54.37
77871;BME280;67067;46.850;7.578;2023-08-08T02:50:03;95590.94;;;9.39;54.31
77871;BME280;67067;46.850;7.578;2023-08-08T02:51:05;95589.91;;;9.40;54.45
77871;BME280;67067;46.850;7.578;2023-08-08T02:52:07;95597.25;;;9.37;54.30
77871;BME280;67067;46.850;7.578;2023-08-08T02:53:10;95600.72;;;9.38;54.56
77871;BME280;67067;46.850;7.578;2023-08-08T02:54:17;95590.81;;;9.33;54.21
77871;BME280;67067;46.850;7.578;2023-08-08T02:55:19;95594.03;;;9.35;54.64
77871;BME280;67067;46.850;7.578;2023-08-08T02:56:24;95598.75;;;9.33;54.41
77871;BME280;67067;46.850;7.578;2023-08-08T02:57:27;95599.78;;;9.32;54.47
77871;BME280;67067;46.850;7.578;2023-08-08T02:58:30;95593.47;;;9.33;54.37
77871;BME280;67067;46.850;7.578;2023-08-08T02:59:33;95595.06;;;9.34;54.54
77871;BME280;67067;46.850;7.578;2023-08-08T03:00:38;95598.28;;;9.36;54.16
77871;BME280;67067;46.850;7.578;2023-08-08T03:01:43;95588.91;;;9.41;54.37
77871;BME280;67067;46.850;7.578;2023-08-08T03:02:52;95592.88;;;9.43;54.21
77871;BME280;67067;46.850;7.578;2023-08-08T03:03:54;95594.28;;;9.46;54.21
77871;BME280;67067;46.850;7.578;2023-08-08T03:04:59;95594.50;;;9.44;54.25
77871;BME280;67067;46.850;7.578;2023-08-08T03:06:01;95593.47;;;9.33;54.40
77871;BME280;67067;46.850;7.578;2023-08-08T03:07:03;95588.44;;;9.44;53.89
77871;BME280;67067;46.850;7.578;2023-08-08T03:08:09;95583.13;;;9.44;53.92
77871;BME280;67067;46.850;7.578;2023-08-08T03:09:11;95591.28;;;9.30;54.49
77871;BME280;67067;46.850;7.578;2023-08-08T03:10:13;95590.50;;;9.42;54.27
77871;BME280;67067;46.850;7.578;2023-08-08T03:11:19;95585.78;;;9.44;54.07
77871;BME280;67067;46.850;7.578;2023-08-08T03:12:22;95589.47;;;9.43;54.31
77871;BME280;67067;46.850;7.578;2023-08-08T03:13:27;95584.97;;;9.43;54.28
77871;BME280;67067;46.850;7.578;2023-08-08T03:14:30;95588.75;;;9.47;54.29
77871;BME280;67067;46.850;7.578;2023-08-08T03:15:33;95588.28;;;9.50;54.03
77871;BME280;67067;46.850;7.578;2023-08-08T03:16:37;95589.09;;;9.51;54.15
77871;BME280;67067;46.850;7.578;2023-08-08T03:17:43;95587.13;;;9.46;54.21
77871;BME280;67067;46.850;7.578;2023-08-08T03:18:44;95585.88;;;9.49;54.31
77871;BME280;67067;46.850;7.578;2023-08-08T03:19:49;95586.91;;;9.48;54.35
77871;BME280;67067;46.850;7.578;2023-08-08T03:20:52;95601.72;;;9.49;54.37
77871;BME280;67067;46.850;7.578;2023-08-08T03:21:54;95589.56;;;9.48;54.41
77871;BME280;67067;46.850;7.578;2023-08-08T03:22:56;95588.16;;;9.45;54.51
77871;BME280;67067;46.850;7.578;2023-08-08T03:23:57;95599.31;;;9.47;54.12
77871;BME280;67067;46.850;7.578;2023-08-08T03:25:03;95596.09;;;9.45;54.44
77871;BME280;67067;46.850;7.578;2023-08-08T03:26:05;95595.63;;;9.48;54.58
77871;BME280;67067;46.850;7.578;2023-08-08T03:27:07;95602.78;;;9.48;54.46
77871;BME280;67067;46.850;7.578;2023-08-08T03:28:11;95594.38;;;9.51;54.25
77871;BME280;67067;46.850;7.578;2023-08-08T03:29:12;95602.31;;;9.39;54.71
77871;BME280;67067;46.850;7.578;2023-08-08T03:30:19;95599.09;;;9.49;54.62
77871;BME280;67067;46.850;7.578;2023-08-08T03:31:25;95586.19;;;9.52;54.28
77871;BME280;67067;46.850;7.578;2023-08-08T03:32:28;95596.84;;;9.58;54.29
77871;BME280;67067;46.850;7.578;2023-08-08T03:33:33;95595.97;;;9.52;54.33
77871;BME280;67067;46.850;7.578;2023-08-08T03:34:39;95592.75;;;9.50;54.28
77871;BME280;67067;46.850;7.578;2023-08-08T03:35:41;95595.88;;;9.35;54.75
77871;BME280;67067;46.850;7.578;2023-08-08T03:36:44;95593.72;;;9.44;54.71
77871;BME280;67067;46.850;7.578;2023-08-08T03:37:50;95600.91;;;9.48;54.79
77871;BME280;67067;46.850;7.578;2023-08-08T03:38:52;95592.66;;;9.33;55.21
77871;BME280;67067;46.850;7.578;2023-08-08T03:39:54;95600.03;;;9.43;54.59
77871;BME280;67067;46.850;7.578;2023-08-08T03:41:00;95589.22;;;9.44;54.90
77871;BME280;67067;46.850;7.578;2023-08-08T03:42:03;95593.94;;;9.42;54.64
77871;BME280;67067;46.850;7.578;2023-08-08T03:43:05;95590.25;;;9.43;54.80
77871;BME280;67067;46.850;7.578;2023-08-08T03:44:07;95589.56;;;9.48;54.49
77871;BME280;67067;46.850;7.578;2023-08-08T03:45:09;95593.56;;;9.50;54.56
77871;BME280;67067;46.850;7.578;2023-08-08T03:46:11;95592.75;;;9.50;54.19
77871;BME280;67067;46.850;7.578;2023-08-08T03:47:13;95597.59;;;9.41;54.48
77871;BME280;67067;46.850;7.578;2023-08-08T03:48:21;95593.34;;;9.52;54.42
77871;BME280;67067;46.850;7.578;2023-08-08T03:49:25;95598.38;;;9.54;54.16
77871;BME280;67067;46.850;7.578;2023-08-08T03:50:27;95595.78;;;9.42;54.45
77871;BME280;67067;46.850;7.578;2023-08-08T03:51:30;95594.69;;;9.55;54.21
77871;BME280;67067;46.850;7.578;2023-08-08T03:52:31;95601.84;;;9.42;54.43
77871;BME280;67067;46.850;7.578;2023-08-08T03:53:41;95602.03;;;9.52;54.35
77871;BME280;67067;46.850;7.578;2023-08-08T03:54:46;95602.38;;;9.56;54.30
77871;BME280;67067;46.850;7.578;2023-08-08T03:55:48;95597.91;;;9.57;54.65
77871;BME280;67067;46.850;7.578;2023-08-08T03:56:52;95610.88;;;9.58;54.53
77871;BME280;67067;46.850;7.578;2023-08-08T03:57:55;95604.22;;;9.56;54.56
77871;BME280;67067;46.850;7.578;2023-08-08T03:58:58;95602.88;;;9.53;54.56
77871;BME280;67067;46.850;7.578;2023-08-08T04:00:00;95612.41;;;9.54;54.28
77871;BME280;67067;46.850;7.578;2023-08-08T04:01:16;95613.34;;;9.48;54.64
77871;BME280;67067;46.850;7.578;2023-08-08T04:02:17;95606.75;;;9.50;54.42
77871;BME280;67067;46.850;7.578;2023-08-08T04:03:19;95608.63;;;9.50;54.38
77871;BME280;67067;46.850;7.578;2023-08-08T04:04:22;95607.22;;;9.47;54.48
77871;BME280;67067;46.850;7.578;2023-08-08T04:05:26;95604.13;;;9.50;54.50
77871;BME280;67067;46.850;7.578;2023-08-08T04:06:31;95607.00;;;9.49;54.45
77871;BME280;67067;46.850;7.578;2023-08-08T04:07:35;95605.41;;;9.48;54.50
77871;BME280;67067;46.850;7.578;2023-08-08T04:08:37;95600.59;;;9.45;55.00
77871;BME280;67067;46.850;7.578;2023-08-08T04:09:42;95603.25;;;9.45;55.22
77871;BME280;67067;46.850;7.578;2023-08-08T04:10:43;95606.34;;;9.30;55.49
77871;BME280;67067;46.850;7.578;2023-08-08T04:11:48;95599.22;;;9.42;55.00
77871;BME280;67067;46.850;7.578;2023-08-08T04:12:51;95602.78;;;9.48;54.98
77871;BME280;67067;46.850;7.578;2023-08-08T04:13:52;95605.06;;;9.32;55.19
77871;BME280;67067;46.850;7.578;2023-08-08T04:14:54;95611.72;;;9.47;54.72
77871;BME280;67067;46.850;7.578;2023-08-08T04:15:56;95607.47;;;9.46;54.65
77871;BME280;67067;46.850;7.578;2023-08-08T04:16:58;95609.09;;;9.47;54.56
77871;BME280;67067;46.850;7.578;2023-08-08T04:17:59;95612.97;;;9.32;54.64
77871;BME280;67067;46.850;7.578;2023-08-08T04:19:01;95608.75;;;9.43;54.59
77871;BME280;67067;46.850;7.578;2023-08-08T04:20:06;95605.75;;;9.40;54.61
77871;BME280;67067;46.850;7.578;2023-08-08T04:21:08;95612.78;;;9.46;54.52
77871;BME280;67067;46.850;7.578;2023-08-08T04:22:15;95607.13;;;9.42;54.81
77871;BME280;67067;46.850;7.578;2023-08-08T04:23:17;95612.44;;;9.42;54.70
77871;BME280;67067;46.850;7.578;2023-08-08T04:24:21;95617.97;;;9.41;54.65
77871;BME280;67067;46.850;7.578;2023-08-08T04:25:22;95617.34;;;9.39;54.95
77871;BME280;67067;46.850;7.578;2023-08-08T04:26:24;95618.97;;;9.40;54.82
77871;BME280;67067;46.850;7.578;2023-08-08T04:27:28;95618.53;;;9.43;54.93
77871;BME280;67067;46.850;7.578;2023-08-08T04:28:31;95619.78;;;9.40;55.09
77871;BME280;67067;46.850;7.578;2023-08-08T04:29:35;95614.50;;;9.40;54.94
77871;BME280;67067;46.850;7.578;2023-08-08T04:30:37;95612.88;;;9.39;54.79
77871;BME280;67067;46.850;7.578;2023-08-08T04:31:39;95611.53;;;9.25;55.10
77871;BME280;67067;46.850;7.578;2023-08-08T04:32:40;95609.66;;;9.37;54.94
77871;BME280;67067;46.850;7.578;2023-08-08T04:33:42;95606.91;;;9.44;54.83
77871;BME280;67067;46.850;7.578;2023-08-08T04:34:44;95612.66;;;9.29;55.17
77871;BME280;67067;46.850;7.578;2023-08-08T04:35:46;95604.28;;;9.44;54.67
77871;BME280;67067;46.850;7.578;2023-08-08T04:36:49;95605.06;;;9.44;54.64
77871;BME280;67067;46.850;7.578;2023-08-08T04:37:50;95611.53;;;9.25;55.11
77871;BME280;67067;46.850;7.578;2023-08-08T04:38:52;95618.19;;;9.39;54.99
77871;BME280;67067;46.850;7.578;2023-08-08T04:39:54;95608.19;;;9.41;55.03
77871;BME280;67067;46.850;7.578;2023-08-08T04:40:56;95614.03;;;9.43;55.02
77871;BME280;67067;46.850;7.578;2023-08-08T04:42:01;95603.47;;;9.43;54.78
77871;BME280;67067;46.850;7.578;2023-08-08T04:43:07;95609.56;;;9.44;54.75
77871;BME280;67067;46.850;7.578;2023-08-08T04:44:09;95615.53;;;9.27;54.96
77871;BME280;67067;46.850;7.578;2023-08-08T04:45:11;95613.94;;;9.38;55.06
77871;BME280;67067;46.850;7.578;2023-08-08T04:46:14;95613.69;;;9.40;54.87
77871;BME280;67067;46.850;7.578;2023-08-08T04:47:16;95609.78;;;9.30;55.22
77871;BME280;67067;46.850;7.578;2023-08-08T04:48:17;95611.72;;;9.47;54.93
77871;BME280;67067;46.850;7.578;2023-08-08T04:49:19;95619.78;;;9.40;55.05
77871;BME280;67067;46.850;7.578;2023-08-08T04:50:21;95613.44;;;9.53;54.69
77871;BME280;67067;46.850;7.578;2023-08-08T04:51:23;95614.09;;;9.60;54.51
77871;BME280;67067;46.850;7.578;2023-08-08T04:52:24;95611.16;;;9.45;54.76
77871;BME280;67067;46.850;7.578;2023-08-08T04:53:31;95612.16;;;9.56;54.46
77871;BME280;67067;46.850;7.578;2023-08-08T04:54:33;95619.69;;;9.64;54.20
77871;BME280;67067;46.850;7.578;2023-08-08T04:55:34;95615.81;;;9.55;54.68
77871;BME280;67067;46.850;7.578;2023-08-08T04:56:38;95614.28;;;9.71;54.14
77871;BME280;67067;46.850;7.578;2023-08-08T04:57:40;95613.09;;;9.78;54.13
77871;BME280;67067;46.850;7.578;2023-08-08T04:58:42;95620.59;;;9.70;54.55
77871;BME280;67067;46.850;7.578;2023-08-08T04:59:43;95616.88;;;9.83;54.05
77871;BME280;67067;46.850;7.578;2023-08-08T05:00:45;95619.56;;;9.71;54.07
77871;BME280;67067;46.850;7.578;2023-08-08T05:01:48;95611.59;;;9.83;54.01
77871;BME280;67067;46.850;7.578;2023-08-08T05:02:52;95616.72;;;9.89;53.92
77871;BME280;67067;46.850;7.578;2023-08-08T05:03:53;95618.31;;;9.90;54.07
77871;BME280;67067;46.850;7.578;2023-08-08T05:04:57;95613.03;;;9.90;54.22
77871;BME280;67067;46.850;7.578;2023-08-08T05:06:02;95621.41;;;9.99;54.14
77871;BME280;67067;46.850;7.578;2023-08-08T05:07:04;95620.09;;;10.02;53.97
77871;BME280;67067;46.850;7.578;2023-08-08T05:08:07;95628.72;;;10.09;53.81
77871;BME280;67067;46.850;7.578;2023-08-08T05:09:09;95618.34;;;10.07;53.81
77871;BME280;67067;46.850;7.578;2023-08-08T05:10:11;95619.00;;;10.15;53.96
77871;BME280;67067;46.850;7.578;2023-08-08T05:11:13;95622.03;;;10.06;53.91
77871;BME280;67067;46.850;7.578;2023-08-08T05:12:15;95620.94;;;10.19;53.87
77871;BME280;67067;46.850;7.578;2023-08-08T05:13:16;95618.69;;;10.11;53.70
77871;BME280;67067;46.850;7.578;2023-08-08T05:14:18;95618.38;;;10.24;53.58
77871;BME280;67067;46.850;7.578;2023-08-08T05:15:20;95617.91;;;10.28;53.26
77871;BME280;67067;46.850;7.578;2023-08-08T05:16:21;95619.19;;;10.08;53.82
77871;BME280;67067;46.850;7.578;2023-08-08T05:17:24;95620.69;;;10.21;53.68
77871;BME280;67067;46.850;7.578;2023-08-08T05:18:26;95613.88;;;10.25;53.66
77871;BME280;67067;46.850;7.578;2023-08-08T05:19:30;95612.91;;;10.31;53.82
77871;BME280;67067;46.850;7.578;2023-08-08T05:20:32;95620.31;;;10.12;54.13
77871;BME280;67067;46.850;7.578;2023-08-08T05:21:34;95624.16;;;10.21;53.96
77871;BME280;67067;46.850;7.578;2023-08-08T05:22:36;95618.13;;;10.26;54.07
77871;BME280;67067;46.850;7.578;2023-08-08T05:23:37;95619.56;;;10.17;54.11
77871;BME280;67067;46.850;7.578;2023-08-08T05:24:39;95616.84;;;10.29;53.66
77871;BME280;67067;46.850;7.578;2023-08-08T05:25:42;95626.78;;;10.38;53.56
77871;BME280;67067;46.850;7.578;2023-08-08T05:26:43;95617.91;;;10.45;53.26
77871;BME280;67067;46.850;7.578;2023-08-08T05:27:47;95613.78;;;10.49;53.18
77871;BME280;67067;46.850;7.578;2023-08-08T05:28:51;95616.72;;;10.52;53.24
77871;BME280;67067;46.850;7.578;2023-08-08T05:29:53;95618.22;;;10.31;53.97
77871;BME280;67067;46.850;7.578;2023-08-08T05:30:54;95615.59;;;10.48;53.62
77871;BME280;67067;46.850;7.578;2023-08-08T05:31:57;95612.25;;;10.53;53.59
77871;BME280;67067;46.850;7.578;2023-08-08T05:33:00;95613.09;;;10.59;53.47
77871;BME280;67067;46.850;7.578;2023-08-08T05:34:02;95611.84;;;10.61;53.27
77871;BME280;67067;46.850;7.578;2023-08-08T05:35:04;95611.69;;;10.51;53.53
77871;BME280;67067;46.850;7.578;2023-08-08T05:36:06;95616.31;;;10.61;53.32
77871;BME280;67067;46.850;7.578;2023-08-08T05:37:07;95612.47;;;10.51;53.35
77871;BME280;67067;46.850;7.578;2023-08-08T05:38:17;95613.25;;;10.69;52.87
77871;BME280;67067;46.850;7.578;2023-08-08T05:39:19;95614.72;;;10.60;53.05
77871;BME280;67067;46.850;7.578;2023-08-08T05:40:21;95617.59;;;10.75;52.99
77871;BME280;67067;46.850;7.578;2023-08-08T05:41:23;95617.44;;;10.65;53.33
77871;BME280;67067;46.850;7.578;2023-08-08T05:42:24;95617.91;;;10.79;52.85
77871;BME280;67067;46.850;7.578;2023-08-08T05:43:27;95621.91;;;10.81;52.64